Time;durP1;ratioP1;P1;durP2;ratioP2;P2;SDS_P1;SDS_P2;PMS_P1;PMS_P2;Temp;Humidity;BMP_temperature;BMP_pressure;BME280_temperature;BME280_humidity;BME280_pressure;Samples;Min_cycle;Max_cycle;Signal;HPM_P1;HPM_P2
2022/10/26 00:01:10;;;;;;;15.15;11.98;;;9.90;99.90;;;;;;7368811;19;20521;-47
2022/10/26 00:03:38;;;;;;;15.25;11.95;;;9.90;99.90;;;;;;7373864;19;20487;-50
2022/10/26 00:06:05;;;;;;;12.57;11.25;;;9.90;99.90;;;;;;7377223;19;20493;-46
2022/10/26 00:08:32;;;;;;;13.95;11.80;;;9.80;99.90;;;;;;7372996;19;20015;-47
2022/10/26 00:10:58;;;;;;;17.20;12.43;;;9.80;99.90;;;;;;7372432;19;20035;-48
2022/10/26 00:13:24;;;;;;;15.43;10.73;;;9.80;99.90;;;;;;7375444;19;20054;-60
2022/10/26 00:15:50;;;;;;;14.85;11.73;;;9.70;99.90;;;;;;7374647;19;20094;-60
2022/10/26 00:18:17;;;;;;;14.48;11.13;;;9.60;99.90;;;;;;7374880;19;20021;-46
2022/10/26 00:20:43;;;;;;;13.48;11.18;;;9.60;99.90;;;;;;7373362;19;20051;-49
2022/10/26 00:23:09;;;;;;;15.27;11.70;;;9.60;99.90;;;;;;7373564;19;20478;-60
2022/10/26 00:25:36;;;;;;;13.45;11.73;;;9.60;99.90;;;;;;7371951;19;20011;-61
2022/10/26 00:28:03;;;;;;;15.68;11.75;;;9.50;99.90;;;;;;7372264;19;20018;-61
2022/10/26 00:30:29;;;;;;;16.73;12.20;;;9.50;99.90;;;;;;7375884;19;20025;-47
2022/10/26 00:32:55;;;;;;;16.35;11.77;;;9.50;99.90;;;;;;7371830;19;20018;-49
2022/10/26 00:35:21;;;;;;;13.88;11.48;;;9.50;99.90;;;;;;7373138;19;20023;-55
2022/10/26 00:37:47;;;;;;;16.50;11.88;;;9.40;99.90;;;;;;7367213;19;20117;-49
2022/10/26 00:40:14;;;;;;;15.75;12.07;;;9.40;99.90;;;;;;7373791;19;20027;-46
2022/10/26 00:42:41;;;;;;;17.25;12.80;;;9.30;99.90;;;;;;7374477;19;20026;-47
2022/10/26 00:45:23;;;;;;;15.88;12.15;;;9.30;99.90;;;;;;7371970;19;20105;-61
2022/10/26 00:47:52;;;;;;;;;;;9.30;99.90;;;;;;7374210;19;20035;-61
2022/10/26 00:50:26;;;;;;;15.85;11.40;;;9.30;99.90;;;;;;7375859;19;20860;-61
2022/10/26 00:52:53;;;;;;;14.43;10.65;;;9.20;99.90;;;;;;7370731;19;20054;-61
2022/10/26 00:55:23;;;;;;;13.45;10.30;;;9.20;99.90;;;;;;7372667;19;20026;-61
2022/10/26 00:57:52;;;;;;;15.45;12.07;;;9.10;99.90;;;;;;7372018;19;20035;-61
2022/10/26 01:00:19;;;;;;;15.13;10.65;;;9.10;99.90;;;;;;7376232;19;21082;-61
2022/10/26 01:02:47;;;;;;;15.27;10.73;;;9.10;99.90;;;;;;7375515;19;20483;-62
2022/10/26 01:05:16;;;;;;;13.77;11.50;;;9.00;99.90;;;;;;7376194;19;20622;-50
2022/10/26 01:07:43;;;;;;;16.13;12.25;;;9.00;99.90;;;;;;7371304;19;20031;-47
2022/10/26 01:10:10;;;;;;;15.23;12.48;;;9.00;99.90;;;;;;7371230;19;20749;-46
2022/10/26 01:12:37;;;;;;;17.17;12.63;;;9.00;99.90;;;;;;7376599;19;20505;-48
2022/10/26 01:15:04;;;;;;;15.10;12.23;;;9.00;99.90;;;;;;7372118;19;20079;-50
2022/10/26 01:17:42;;;;;;;20.67;14.13;;;9.00;99.90;;;;;;7376485;19;20014;-47
2022/10/26 01:20:23;;;;;;;16.15;12.48;;;9.00;99.90;;;;;;7377721;19;20854;-48
2022/10/26 01:22:57;;;;;;;20.92;13.18;;;8.90;99.90;;;;;;7384125;19;20029;-49
2022/10/26 01:26:00;;;;;;;17.85;11.52;;;8.90;99.90;;;;;;7383043;19;20677;-50
2022/10/26 01:29:01;;;;;;;15.57;12.68;;;8.90;99.90;;;;;;7376314;19;20028;-48
2022/10/26 01:31:35;;;;;;;18.58;12.52;;;8.90;99.90;;;;;;7375601;19;20581;-49
2022/10/26 01:34:14;;;;;;;20.23;13.90;;;8.90;99.90;;;;;;7378139;19;20019;-50
2022/10/26 01:36:59;;;;;;;15.25;13.00;;;8.80;99.90;;;;;;7374901;19;20014;-47
2022/10/26 01:39:50;;;;;;;20.90;14.45;;;8.90;99.90;;;;;;7376933;19;20018;-61
2022/10/26 01:42:19;;;;;;;17.40;13.85;;;8.90;99.90;;;;;;7380795;19;20026;-61
2022/10/26 01:44:55;;;;;;;15.93;13.88;;;8.90;99.90;;;;;;7380420;19;20431;-61
2022/10/26 01:47:23;;;;;;;21.70;15.93;;;8.80;99.90;;;;;;7379754;19;20022;-61
2022/10/26 01:49:58;;;;;;;17.48;15.27;;;8.80;99.90;;;;;;7375169;19;20026;-62
2022/10/26 01:52:24;;;;;;;22.60;14.95;;;8.90;99.90;;;;;;7378030;19;20867;-60
2022/10/26 01:54:50;;;;;;;19.42;15.60;;;8.90;99.90;;;;;;7374835;19;20022;-60
2022/10/26 01:57:20;;;;;;;19.77;14.98;;;8.80;99.90;;;;;;7379166;19;20025;-60
2022/10/26 01:59:57;;;;;;;19.67;16.17;;;8.80;99.90;;;;;;7377727;19;20441;-60
2022/10/26 02:02:42;;;;;;;24.88;17.83;;;8.80;99.90;;;;;;7375075;19;20015;-60
2022/10/26 02:05:35;;;;;;;31.02;17.92;;;8.90;99.90;;;;;;7373152;19;20018;-60
2022/10/26 02:08:20;;;;;;;23.67;18.50;;;8.90;99.90;;;;;;7376392;19;20015;-49
2022/10/26 02:11:19;;;;;;;32.38;20.40;;;8.90;99.90;;;;;;7379109;19;20115;-47
2022/10/26 02:13:56;;;;;;;25.90;20.13;;;9.00;99.90;;;;;;7377934;19;20011;-45
2022/10/26 02:16:37;;;;;;;27.08;19.27;;;9.00;99.90;;;;;;7378652;19;20014;-49
2022/10/26 02:19:32;;;;;;;25.92;18.88;;;9.00;99.90;;;;;;7375959;19;20889;-48
2022/10/26 02:22:17;;;;;;;24.10;19.50;;;9.00;99.90;;;;;;7374645;19;20019;-48
2022/10/26 02:24:44;;;;;;;30.83;19.83;;;9.00;99.90;;;;;;7376874;19;20026;-49
2022/10/26 02:27:19;;;;;;;30.35;21.35;;;9.10;99.90;;;;;;7376837;19;20702;-49
2022/10/26 02:29:49;;;;;;;28.10;19.02;;;9.10;99.90;;;;;;7376439;19;20018;-49
2022/10/26 02:32:18;;;;;;;26.00;18.27;;;9.10;99.90;;;;;;7375107;19;20014;-49
2022/10/26 02:34:46;;;;;;;23.73;18.05;;;9.00;99.90;;;;;;7377507;19;20667;-50
2022/10/26 02:37:15;;;;;;;24.35;18.58;;;9.00;99.90;;;;;;7373847;19;20014;-60
2022/10/26 02:39:42;;;;;;;28.85;18.23;;;9.00;99.90;;;;;;7374481;19;20042;-60
2022/10/26 02:42:09;;;;;;;24.10;17.92;;;9.00;99.90;;;;;;7373777;19;20742;-60
2022/10/26 02:44:45;;;;;;;21.80;18.58;;;9.00;99.90;;;;;;7375653;19;20018;-51
2022/10/26 02:47:12;;;;;;;22.25;17.92;;;8.90;99.90;;;;;;7369951;19;20033;-49
2022/10/26 02:49:38;;;;;;;25.42;19.10;;;8.90;99.90;;;;;;7374629;19;20026;-48
2022/10/26 02:52:15;;;;;;;28.88;18.48;;;8.90;99.90;;;;;;7373505;19;20026;-48
2022/10/26 02:55:10;;;;;;;27.08;19.38;;;9.00;99.90;;;;;;7375947;19;21073;-49
2022/10/26 02:57:41;;;;;;;25.90;19.17;;;9.00;99.90;;;;;;7372466;19;20018;-46
2022/10/26 03:00:10;;;;;;;24.98;19.70;;;9.00;99.90;;;;;;7371902;19;20018;-51
2022/10/26 03:02:36;;;;;;;25.83;18.98;;;9.00;99.90;;;;;;7373293;19;21011;-50
2022/10/26 03:05:12;;;;;;;26.33;19.52;;;9.00;99.90;;;;;;7377834;19;20691;-60
2022/10/26 03:07:38;;;;;;;26.52;19.00;;;9.00;99.90;;;;;;7382247;19;20023;-60
2022/10/26 03:10:05;;;;;;;28.88;21.23;;;9.10;99.90;;;;;;7383023;19;20026;-62
2022/10/26 03:12:31;;;;;;;24.58;19.17;;;9.10;99.90;;;;;;7382517;19;21053;-60
2022/10/26 03:14:58;;;;;;;26.05;20.02;;;9.10;99.90;;;;;;7384477;19;20042;-59
2022/10/26 03:17:24;;;;;;;28.25;20.45;;;9.10;99.90;;;;;;7378888;19;20022;-60
2022/10/26 03:19:50;;;;;;;28.55;20.98;;;9.10;99.90;;;;;;7385196;19;20549;-60
2022/10/26 03:22:16;;;;;;;28.92;20.58;;;9.10;99.90;;;;;;7380917;19;20026;-60
2022/10/26 03:24:42;;;;;;;29.60;20.77;;;9.10;99.90;;;;;;7372167;19;20019;-50
2022/10/26 03:27:08;;;;;;;27.98;20.38;;;9.10;99.90;;;;;;7376258;19;20494;-51
2022/10/26 03:29:35;;;;;;;28.83;20.77;;;9.10;99.90;;;;;;7375829;19;20019;-50
2022/10/26 03:32:02;;;;;;;23.92;19.58;;;9.10;99.90;;;;;;7375756;19;20021;-49
2022/10/26 03:34:28;;;;;;;30.42;21.30;;;9.10;99.90;;;;;;7372954;19;20033;-50
2022/10/26 03:36:54;;;;;;;28.08;20.67;;;9.10;99.90;;;;;;7375382;19;20034;-50
2022/10/26 03:39:20;;;;;;;29.27;20.60;;;9.10;99.90;;;;;;7372118;19;20044;-51
2022/10/26 03:41:46;;;;;;;26.52;19.42;;;9.10;99.90;;;;;;7372346;19;20026;-49
2022/10/26 03:44:13;;;;;;;32.25;20.92;;;9.10;99.90;;;;;;7370645;19;20026;-51
2022/10/26 03:46:39;;;;;;;28.02;19.67;;;9.10;99.90;;;;;;7379449;19;20022;-61
2022/10/26 03:49:05;;;;;;;25.90;20.08;;;9.10;99.90;;;;;;7383367;19;20023;-60
2022/10/26 03:51:31;;;;;;;28.42;21.27;;;9.10;99.90;;;;;;7375681;19;20026;-50
2022/10/26 03:53:57;;;;;;;30.90;21.15;;;9.10;99.90;;;;;;7373411;19;20761;-51
2022/10/26 03:56:24;;;;;;;30.00;20.92;;;9.10;99.90;;;;;;7371337;19;20116;-49
2022/10/26 03:58:50;;;;;;;28.73;21.10;;;9.10;99.90;;;;;;7373089;19;20082;-50
2022/10/26 04:01:16;;;;;;;26.92;19.65;;;9.10;99.90;;;;;;7366277;19;20022;-50
2022/10/26 04:03:42;;;;;;;23.65;19.08;;;9.10;99.90;;;;;;7376759;19;20029;-60
2022/10/26 04:06:08;;;;;;;28.88;20.95;;;9.10;99.90;;;;;;7377765;19;20121;-60
2022/10/26 04:08:35;;;;;;;26.75;19.52;;;9.10;99.90;;;;;;7379092;19;20026;-51
2022/10/26 04:11:01;;;;;;;26.48;21.45;;;9.00;99.90;;;;;;7369864;19;20073;-50
2022/10/26 04:13:27;;;;;;;26.77;19.15;;;9.00;99.90;;;;;;7369984;19;20018;-51
2022/10/26 04:15:53;;;;;;;26.25;18.50;;;9.00;99.90;;;;;;7369412;19;20029;-48
2022/10/26 04:18:19;;;;;;;23.23;18.70;;;9.00;99.90;;;;;;7372962;19;20022;-49
2022/10/26 04:20:45;;;;;;;24.23;19.23;;;9.00;99.90;;;;;;7372177;19;20094;-49
2022/10/26 04:23:15;;;;;;;29.17;19.60;;;9.00;99.90;;;;;;7370033;19;20038;-53
2022/10/26 04:25:42;;;;;;;28.35;20.13;;;9.00;99.90;;;;;;7376230;19;20022;-61
2022/10/26 04:28:10;;;;;;;29.83;19.83;;;9.10;99.90;;;;;;7374824;19;20026;-50
2022/10/26 04:30:37;;;;;;;27.50;19.40;;;9.10;99.90;;;;;;7371037;19;20018;-50
2022/10/26 04:33:05;;;;;;;25.60;19.73;;;9.20;99.90;;;;;;7374866;19;20014;-61
2022/10/26 04:35:31;;;;;;;31.42;20.92;;;9.20;99.90;;;;;;7377711;19;20024;-61
2022/10/26 04:37:59;;;;;;;29.90;20.70;;;9.30;99.90;;;;;;7377263;19;20033;-61
2022/10/26 04:40:29;;;;;;;30.80;20.65;;;9.30;99.90;;;;;;7377048;19;20389;-61
2022/10/26 04:42:56;;;;;;;26.85;19.63;;;9.40;99.90;;;;;;7383067;19;20018;-61
2022/10/26 04:45:22;;;;;;;27.80;20.15;;;9.40;99.90;;;;;;7375782;19;20081;-51
2022/10/26 04:48:09;;;;;;;24.92;18.15;;;9.50;99.90;;;;;;7372502;19;20076;-52
2022/10/26 04:50:36;;;;;;;24.83;18.42;;;9.50;99.90;;;;;;7372584;19;20517;-52
2022/10/26 04:53:04;;;;;;;24.45;18.15;;;9.60;99.90;;;;;;7379718;19;20052;-48
2022/10/26 04:55:30;;;;;;;27.25;18.27;;;9.60;99.90;;;;;;7379081;19;20038;-50
2022/10/26 04:57:56;;;;;;;28.58;18.65;;;9.60;99.90;;;;;;7380188;19;20104;-48
2022/10/26 05:00:23;;;;;;;22.83;17.70;;;9.70;99.90;;;;;;7373693;19;20789;-49
2022/10/26 05:02:49;;;;;;;24.55;19.08;;;9.70;99.90;;;;;;7378163;19;20038;-48
2022/10/26 05:05:15;;;;;;;23.58;17.88;;;9.70;99.90;;;;;;7380819;19;20485;-61
2022/10/26 05:07:41;;;;;;;25.58;18.52;;;9.80;99.90;;;;;;7378226;19;20371;-51
2022/10/26 05:10:08;;;;;;;24.00;18.48;;;9.80;99.90;;;;;;7378251;19;20022;-61
2022/10/26 05:12:34;;;;;;;23.05;16.60;;;9.80;99.90;;;;;;7382605;19;20019;-61
2022/10/26 05:15:00;;;;;;;25.42;17.85;;;9.80;99.90;;;;;;7382692;19;20022;-61
2022/10/26 05:17:27;;;;;;;26.25;18.45;;;9.80;99.90;;;;;;7384693;19;20006;-61
2022/10/26 05:19:59;;;;;;;24.67;18.48;;;9.90;99.90;;;;;;7373598;19;20022;-51
2022/10/26 05:22:25;;;;;;;21.33;17.38;;;9.80;99.90;;;;;;7366686;19;20023;-52
2022/10/26 05:24:51;;;;;;;24.33;18.80;;;9.90;99.90;;;;;;7375289;19;20026;-53
2022/10/26 05:27:17;;;;;;;23.02;16.88;;;9.90;99.90;;;;;;7376879;19;20042;-52
2022/10/26 05:29:44;;;;;;;23.02;17.75;;;9.90;99.90;;;;;;7379526;19;20671;-53
2022/10/26 05:32:10;;;;;;;21.40;17.27;;;9.90;99.90;;;;;;7375884;19;20018;-53
2022/10/26 05:34:37;;;;;;;21.67;17.40;;;9.90;99.90;;;;;;7375344;19;20031;-54
2022/10/26 05:37:03;;;;;;;21.10;17.00;;;9.90;99.90;;;;;;7377618;19;20043;-51
2022/10/26 05:39:30;;;;;;;23.45;17.50;;;10.00;99.90;;;;;;7382018;19;20022;-61
2022/10/26 05:41:56;;;;;;;23.70;16.77;;;10.00;99.90;;;;;;7379749;19;20019;-51
2022/10/26 05:44:22;;;;;;;24.50;17.65;;;10.00;99.90;;;;;;7374642;19;20105;-50
2022/10/26 05:46:49;;;;;;;21.73;15.25;;;10.00;99.90;;;;;;7373905;19;20022;-59
2022/10/26 05:49:15;;;;;;;19.30;15.80;;;10.00;99.90;;;;;;7374145;19;20374;-50
2022/10/26 05:51:41;;;;;;;22.33;16.27;;;10.10;99.90;;;;;;7377323;19;20033;-52
2022/10/26 05:54:07;;;;;;;23.48;15.95;;;10.10;99.90;;;;;;7371910;19;20385;-59
2022/10/26 05:56:39;;;;;;;19.65;15.10;;;10.00;99.90;;;;;;7377767;19;20018;-59
2022/10/26 05:59:15;;;;;;;20.90;15.55;;;10.10;99.90;;;;;;7374992;19;20018;-59
2022/10/26 06:02:22;;;;;;;21.00;15.52;;;10.10;99.90;;;;;;7374255;19;20022;-59
2022/10/26 06:04:49;;;;;;;24.55;15.88;;;10.00;99.90;;;;;;7382350;19;20022;-59
2022/10/26 06:07:19;;;;;;;21.30;15.82;;;10.10;99.90;;;;;;7373650;19;20022;-59
2022/10/26 06:09:46;;;;;;;19.95;15.40;;;10.10;99.90;;;;;;7379009;19;20629;-59
2022/10/26 06:12:13;;;;;;;19.98;16.40;;;10.10;99.90;;;;;;7376812;19;20018;-53
2022/10/26 06:14:40;;;;;;;20.13;15.85;;;10.10;99.90;;;;;;7376223;19;20025;-51
2022/10/26 06:17:21;;;;;;;24.83;15.07;;;10.20;99.90;;;;;;7371990;19;20014;-60
2022/10/26 06:19:59;;;;;;;19.83;14.87;;;10.20;99.90;;;;;;7371160;19;20023;-60
2022/10/26 06:22:43;;;;;;;18.45;14.88;;;10.20;99.90;;;;;;7369674;19;20029;-60
2022/10/26 06:25:12;;;;;;;16.70;14.02;;;10.20;99.90;;;;;;7373488;19;20029;-60
2022/10/26 06:28:11;;;;;;;87.50;68.63;;;10.20;99.90;;;;;;7377405;19;20018;-60
2022/10/26 06:30:41;;;;;;;32.45;28.45;;;10.30;99.90;;;;;;7374045;19;20849;-59
2022/10/26 06:33:12;;;;;;;19.20;14.88;;;10.50;99.90;;;;;;7373700;19;20082;-60
2022/10/26 06:35:39;;;;;;;21.40;13.85;;;10.40;99.90;;;;;;7367443;19;20826;-60
2022/10/26 06:38:20;;;;;;;18.77;13.20;;;10.40;99.90;;;;;;7361178;19;20093;-60
2022/10/26 06:40:50;;;;;;;18.95;13.85;;;10.30;99.90;;;;;;7370169;19;20489;-60
2022/10/26 06:43:24;;;;;;;16.98;13.60;;;10.30;99.90;;;;;;7373032;19;20588;-59
2022/10/26 06:46:12;;;;;;;21.17;13.05;;;10.30;99.90;;;;;;7366251;19;20018;-60
2022/10/26 06:48:52;;;;;;;17.50;12.55;;;10.20;99.90;;;;;;7373901;19;20761;-51
2022/10/26 06:51:20;;;;;;;17.40;13.90;;;10.20;99.90;;;;;;7369190;19;20015;-60
2022/10/26 06:53:55;;;;;;;19.52;13.35;;;10.20;99.90;;;;;;7369864;19;20082;-52
2022/10/26 06:56:23;;;;;;;16.20;12.77;;;10.10;99.90;;;;;;7369816;19;20022;-59
2022/10/26 06:58:53;;;;;;;16.23;13.25;;;10.20;99.90;;;;;;7371010;19;20487;-59
2022/10/26 07:01:20;;;;;;;16.35;11.73;;;10.20;99.90;;;;;;7363409;19;20018;-66
2022/10/26 07:03:46;;;;;;;15.93;11.55;;;10.20;99.90;;;;;;7364606;19;20039;-67
2022/10/26 07:06:12;;;;;;;17.20;12.43;;;10.20;99.90;;;;;;7368452;19;20030;-66
2022/10/26 07:08:39;;;;;;;18.40;12.23;;;10.30;99.90;;;;;;7373992;19;20029;-66
2022/10/26 07:11:05;;;;;;;15.32;12.43;;;10.30;99.90;;;;;;7371850;19;20019;-67
2022/10/26 07:13:32;;;;;;;16.10;11.45;;;10.40;99.90;;;;;;7368357;19;20565;-67
2022/10/26 07:15:58;;;;;;;16.35;11.13;;;10.40;99.90;;;;;;7369582;19;20103;-66
2022/10/26 07:18:24;;;;;;;18.13;11.90;;;10.60;99.90;;;;;;7373823;19;20022;-66
2022/10/26 07:20:51;;;;;;;13.52;10.55;;;10.70;99.90;;;;;;7373639;19;20010;-67
2022/10/26 07:23:17;;;;;;;12.93;11.50;;;10.80;99.90;;;;;;7370976;19;20574;-65
2022/10/26 07:25:46;;;;;;;13.65;11.65;;;10.90;99.90;;;;;;7372989;19;20082;-67
2022/10/26 07:28:13;;;;;;;15.30;11.13;;;11.00;99.90;;;;;;7369462;19;20018;-67
2022/10/26 07:30:39;;;;;;;15.20;10.23;;;11.20;99.90;;;;;;7371206;19;20024;-66
2022/10/26 07:33:11;;;;;;;16.25;10.85;;;11.30;99.90;;;;;;7369580;19;20018;-67
2022/10/26 07:35:38;;;;;;;15.40;10.50;;;11.30;99.90;;;;;;7368064;19;20022;-66
2022/10/26 07:38:07;;;;;;;13.35;9.55;;;11.50;99.90;;;;;;7365268;19;20014;-66
2022/10/26 07:40:36;;;;;;;14.60;12.13;;;11.60;99.90;;;;;;7368353;19;20680;-67
2022/10/26 07:43:04;;;;;;;11.05;8.88;;;12.10;99.90;;;;;;7366991;19;20029;-66
2022/10/26 07:45:30;;;;;;;10.55;8.00;;;12.50;99.90;;;;;;7368574;19;20019;-68
2022/10/26 07:47:57;;;;;;;13.40;8.75;;;12.80;99.90;;;;;;7368578;19;20025;-66
2022/10/26 07:50:24;;;;;;;11.38;7.95;;;13.00;99.90;;;;;;7372202;19;20025;-67
2022/10/26 07:52:50;;;;;;;10.90;7.20;;;13.40;99.90;;;;;;7367852;19;20015;-66
2022/10/26 07:55:18;;;;;;;8.77;7.00;;;13.70;99.90;;;;;;7368428;19;20018;-67
2022/10/26 07:57:47;;;;;;;9.30;6.72;;;14.30;99.90;;;;;;7370304;19;20018;-67
2022/10/26 08:00:14;;;;;;;10.55;6.47;;;14.40;99.90;;;;;;7365997;19;20082;-66
2022/10/26 08:02:44;;;;;;;10.52;6.90;;;14.50;99.90;;;;;;7365595;19;20018;-66
2022/10/26 08:05:10;;;;;;;8.35;6.32;;;14.60;99.90;;;;;;7373085;19;20520;-66
2022/10/26 08:07:45;;;;;;;9.60;6.45;;;15.00;99.90;;;;;;7366019;19;20052;-68
2022/10/26 08:10:13;;;;;;;9.57;5.60;;;15.10;99.90;;;;;;7369584;19;20387;-67
2022/10/26 08:12:41;;;;;;;7.68;5.97;;;15.10;99.90;;;;;;7366645;19;20026;-67
2022/10/26 08:15:08;;;;;;;7.43;5.82;;;15.20;99.90;;;;;;7369057;19;20026;-67
2022/10/26 08:17:35;;;;;;;8.05;6.07;;;15.40;99.90;;;;;;7369074;19;20652;-66
2022/10/26 08:20:02;;;;;;;8.90;4.97;;;15.60;99.90;;;;;;7368524;19;20104;-67
2022/10/26 08:22:29;;;;;;;7.38;4.93;;;16.50;99.90;;;;;;7367289;19;20022;-66
2022/10/26 08:24:56;;;;;;;10.23;5.80;;;16.70;99.90;;;;;;7368861;19;20026;-66
2022/10/26 08:27:22;;;;;;;9.32;6.03;;;16.60;99.90;;;;;;7370227;19;20026;-61
2022/10/26 08:29:49;;;;;;;9.18;5.60;;;16.30;99.90;;;;;;7371906;19;20046;-61
2022/10/26 08:32:15;;;;;;;6.53;5.15;;;16.10;99.90;;;;;;7371721;19;20025;-62
2022/10/26 08:34:41;;;;;;;6.55;4.45;;;16.00;99.90;;;;;;7369433;19;20018;-59
2022/10/26 08:37:08;;;;;;;8.57;4.88;;;15.60;99.90;;;;;;7366241;19;20101;-60
2022/10/26 08:39:35;;;;;;;9.15;4.65;;;15.50;99.90;;;;;;7367016;19;20014;-60
2022/10/26 08:42:12;;;;;;;6.70;5.13;;;15.10;99.90;;;;;;7363507;19;20098;-60
2022/10/26 08:44:47;;;;;;;6.65;4.93;;;15.10;99.90;;;;;;7369732;19;20476;-60
2022/10/26 08:47:34;;;;;;;8.73;5.07;;;15.40;99.90;;;;;;7365257;19;20018;-60
2022/10/26 08:50:03;;;;;;;8.55;6.35;;;16.40;99.90;;;;;;7385891;19;20105;-64
2022/10/26 08:52:51;;;;;;;7.90;6.22;;;17.70;99.90;;;;;;7392259;19;20011;-64
2022/10/26 08:55:24;;;;;;;7.07;4.38;;;18.50;99.90;;;;;;7393273;19;20015;-65
2022/10/26 08:57:52;;;;;;;5.72;4.20;;;19.20;99.90;;;;;;7394679;19;20014;-64
2022/10/26 09:00:24;;;;;;;8.15;4.22;;;19.70;99.90;;;;;;7395069;19;20098;-64
2022/10/26 09:02:52;;;;;;;5.60;3.20;;;20.00;99.90;;;;;;7389150;19;20387;-64
2022/10/26 09:05:37;;;;;;;6.88;5.53;;;20.50;99.90;;;;;;7391679;19;20019;-64
2022/10/26 09:08:24;;;;;;;7.03;3.28;;;20.80;99.90;;;;;;7392068;19;20104;-64
2022/10/26 09:11:39;;;;;;;5.22;2.88;;;21.40;99.90;;;;;;7388289;19;20074;-65
2022/10/26 09:14:26;;;;;;;5.90;3.58;;;21.60;99.90;;;;;;7372301;19;20057;-64
2022/10/26 09:17:07;;;;;;;5.80;3.05;;;21.70;99.90;;;;;;7392863;19;20015;-65
2022/10/26 09:20:02;;;;;;;7.75;3.13;;;21.90;99.90;;;;;;7392932;19;20036;-64
2022/10/26 09:22:47;;;;;;;6.90;4.35;;;22.50;99.90;;;;;;7368067;19;20035;-65
2022/10/26 09:25:25;;;;;;;7.60;3.42;;;22.90;99.90;;;;;;7361004;19;20030;-66
2022/10/26 09:27:56;;;;;;;4.35;2.90;;;23.00;99.90;;;;;;7365800;19;20027;-65
2022/10/26 09:30:25;;;;;;;6.20;2.67;;;23.20;99.90;;;;;;7360313;19;20043;-65
2022/10/26 09:32:54;;;;;;;4.82;2.65;;;23.20;99.90;;;;;;7365273;19;20401;-65
2022/10/26 09:35:43;;;;;;;5.60;2.60;;;23.20;99.90;;;;;;7364789;19;20025;-66
2022/10/26 09:38:21;;;;;;;7.68;3.20;;;22.90;99.90;;;;;;7368041;19;20022;-65
2022/10/26 09:41:16;;;;;;;8.38;3.80;;;23.30;99.90;;;;;;7372144;19;20026;-61
2022/10/26 09:43:56;;;;;;;7.43;2.92;;;23.60;99.90;;;;;;7372702;19;20437;-64
2022/10/26 09:46:58;;;;;;;4.18;2.60;;;24.50;99.90;;;;;;7372637;19;20025;-63
2022/10/26 09:49:33;;;;;;;6.72;3.13;;;24.00;99.90;;;;;;7366378;19;20020;-61
2022/10/26 09:52:00;;;;;;;4.30;2.50;;;23.10;99.90;;;;;;7374073;19;20041;-62
2022/10/26 09:54:26;;;;;;;4.65;2.10;;;21.80;99.90;;;;;;7371464;19;20023;-62
2022/10/26 09:56:57;;;;;;;4.45;2.42;;;21.50;99.90;;;;;;7373948;19;20034;-61
2022/10/26 09:59:25;;;;;;;4.28;2.25;;;20.90;99.90;;;;;;7365063;19;20022;-62
2022/10/26 10:01:51;;;;;;;5.40;2.90;;;20.60;99.90;;;;;;7367063;19;20011;-62
2022/10/26 10:04:23;;;;;;;7.10;2.55;;;20.40;99.90;;;;;;7369525;19;20131;-62
2022/10/26 10:06:52;;;;;;;7.65;2.70;;;20.30;99.90;;;;;;7372962;19;20046;-61
2022/10/26 10:09:23;;;;;;;6.22;4.68;;;20.40;99.90;;;;;;7364630;19;20545;-61
2022/10/26 10:12:00;;;;;;;4.25;2.22;;;20.50;99.90;;;;;;7368356;19;20018;-61
2022/10/26 10:14:29;;;;;;;3.70;2.70;;;21.10;99.90;;;;;;7367475;19;21410;-63
2022/10/26 10:17:09;;;;;;;5.63;3.15;;;20.90;99.90;;;;;;7370670;19;20490;-61
2022/10/26 10:19:37;;;;;;;4.50;2.22;;;21.20;99.90;;;;;;7369877;19;20433;-61
2022/10/26 10:22:13;;;;;;;5.28;3.22;;;21.70;99.90;;;;;;7368381;19;20394;-61
2022/10/26 10:25:01;;;;;;;5.55;2.70;;;21.90;99.90;;;;;;7368183;19;20449;-63
2022/10/26 10:27:29;;;;;;;5.55;2.60;;;22.40;99.90;;;;;;7366982;19;20026;-62
2022/10/26 10:30:12;;;;;;;5.30;2.92;;;22.30;99.90;;;;;;7366460;19;20363;-61
2022/10/26 10:32:38;;;;;;;5.93;2.30;;;22.20;99.90;;;;;;7368778;19;20440;-66
2022/10/26 10:35:23;;;;;;;5.93;2.45;;;21.90;99.90;;;;;;7367918;19;20023;-63
2022/10/26 10:37:51;;;;;;;3.95;2.50;;;21.40;99.90;;;;;;7366958;19;20105;-62
2022/10/26 10:40:20;;;;;;;5.53;3.65;;;21.40;99.90;;;;;;7364418;19;20019;-67
2022/10/26 10:42:50;;;;;;;6.30;2.70;;;21.60;99.90;;;;;;7363732;19;20018;-67
2022/10/26 10:45:23;;;;;;;4.63;2.97;;;22.30;99.90;;;;;;7365853;19;20015;-66
2022/10/26 10:48:02;;;;;;;5.32;2.50;;;23.20;99.90;;;;;;7368948;19;20011;-62
2022/10/26 10:50:29;;;;;;;9.52;8.35;;;24.30;99.90;;;;;;7370401;19;20030;-62
2022/10/26 10:53:24;;;;;;;4.82;2.28;;;24.90;99.90;;;;;;7373031;19;20031;-62
2022/10/26 10:56:08;;;;;;;5.60;2.67;;;24.10;99.90;;;;;;7366551;19;20022;-61
2022/10/26 10:58:43;;;;;;;5.75;2.55;;;24.40;99.90;;;;;;7369752;19;20118;-62
2022/10/26 11:01:16;;;;;;;4.28;1.95;;;24.80;99.90;;;;;;7370031;19;20021;-62
2022/10/26 11:03:51;;;;;;;8.63;5.97;;;24.60;99.90;;;;;;7370650;19;20621;-67
2022/10/26 11:06:19;;;;;;;4.28;2.25;;;24.70;99.90;;;;;;7367656;19;20019;-66
2022/10/26 11:08:54;;;;;;;7.72;2.33;;;25.10;99.90;;;;;;7367542;19;20470;-68
2022/10/26 11:11:32;;;;;;;4.80;2.47;;;24.90;99.90;;;;;;7368364;19;20115;-67
2022/10/26 11:14:07;;;;;;;5.40;1.90;;;25.10;99.90;;;;;;7368306;19;20018;-62
2022/10/26 11:16:48;;;;;;;8.25;2.80;;;24.70;99.90;;;;;;7370466;19;20113;-67
2022/10/26 11:19:33;;;;;;;5.80;2.13;;;24.30;99.90;;;;;;7366181;19;20058;-67
2022/10/26 11:22:03;;;;;;;4.95;2.63;;;24.50;99.90;;;;;;7365839;19;20014;-67
2022/10/26 11:24:42;;;;;;;5.93;2.53;;;24.10;99.90;;;;;;7371162;19;20018;-67
2022/10/26 11:27:19;;;;;;;5.68;2.13;;;23.80;99.90;;;;;;7366815;19;20569;-67
2022/10/26 11:30:19;;;;;;;6.32;2.20;;;24.20;99.90;;;;;;7367073;19;20605;-67
2022/10/26 11:33:00;;;;;;;4.05;1.95;;;24.40;99.90;;;;;;7368788;19;20482;-67
2022/10/26 11:35:56;;;;;;;6.38;2.92;;;24.40;99.90;;;;;;7366466;19;20022;-66
2022/10/26 11:38:31;;;;;;;5.35;1.77;;;24.50;99.90;;;;;;7362218;19;20428;-67
2022/10/26 11:41:09;;;;;;;5.63;2.35;;;24.10;99.90;;;;;;7363251;19;20453;-62
2022/10/26 11:44:22;;;;;;;5.43;2.13;;;24.00;99.90;;;;;;7364215;19;20015;-62
2022/10/26 11:47:02;;;;;;;3.60;2.38;;;24.10;99.90;;;;;;7365754;19;20022;-61
2022/10/26 11:49:49;;;;;;;6.07;2.42;;;24.20;99.90;;;;;;7361513;19;20019;-62
2022/10/26 11:52:27;;;;;;;4.55;2.03;;;24.50;99.90;;;;;;7364294;19;20357;-62
2022/10/26 11:55:00;;;;;;;5.75;2.08;;;25.20;99.90;;;;;;7365968;19;20018;-62
2022/10/26 11:57:31;;;;;;;4.75;2.40;;;25.60;99.90;;;;;;7365067;19;20501;-67
2022/10/26 12:00:14;;;;;;;6.13;2.00;;;25.90;99.90;;;;;;7362024;19;20027;-66
2022/10/26 12:02:43;;;;;;;6.07;2.45;;;26.10;99.90;;;;;;7362262;19;20486;-67
2022/10/26 12:05:20;;;;;;;6.07;2.22;;;25.60;99.90;;;;;;7367519;19;20021;-66
2022/10/26 12:07:52;;;;;;;4.53;2.08;;;25.50;99.90;;;;;;7368853;19;20015;-63
2022/10/26 12:10:28;;;;;;;5.97;2.30;;;25.60;99.90;;;;;;7366839;19;20014;-63
2022/10/26 12:13:17;;;;;;;5.45;2.53;;;25.50;99.90;;;;;;7365780;19;20014;-63
2022/10/26 12:15:53;;;;;;;8.35;2.60;;;25.00;99.90;;;;;;7366216;19;20022;-63
2022/10/26 12:18:31;;;;;;;5.93;2.20;;;23.80;99.90;;;;;;7366701;19;20597;-63
2022/10/26 12:21:05;;;;;;;5.50;1.90;;;23.40;99.90;;;;;;7366215;19;20018;-62
2022/10/26 12:23:37;;;;;;;7.53;2.60;;;22.80;99.90;;;;;;7366215;19;20587;-62
2022/10/26 12:26:22;;;;;;;5.38;2.50;;;22.10;99.90;;;;;;7365263;19;20019;-62
2022/10/26 12:29:01;;;;;;;4.90;2.50;;;22.30;99.90;;;;;;7365091;19;20018;-62
2022/10/26 12:31:37;;;;;;;6.65;2.78;;;23.30;99.90;;;;;;7363707;19;20074;-61
2022/10/26 12:34:04;;;;;;;6.53;2.53;;;24.00;99.90;;;;;;7362600;19;20022;-62
2022/10/26 12:36:47;;;;;;;7.00;2.63;;;24.30;99.90;;;;;;7363009;19;20070;-62
2022/10/26 12:39:35;;;;;;;5.07;2.55;;;24.80;99.90;;;;;;7360690;19;20023;-62
2022/10/26 12:42:05;;;;;;;7.30;2.65;;;24.80;99.90;;;;;;7363137;19;20103;-62
2022/10/26 12:44:40;;;;;;;6.13;2.10;;;25.00;99.90;;;;;;7365395;19;20025;-62
2022/10/26 12:47:08;;;;;;;6.35;2.00;;;24.70;99.90;;;;;;7364019;19;20043;-62
2022/10/26 12:49:59;;;;;;;7.32;2.40;;;23.90;99.90;;;;;;7364131;19;20018;-62
2022/10/26 12:52:52;;;;;;;6.13;3.28;;;23.80;99.90;;;;;;7364902;19;20089;-62
2022/10/26 12:55:51;;;;;;;4.88;2.72;;;23.70;99.90;;;;;;7360229;19;20450;-63
2022/10/26 12:58:40;;;;;;;6.55;2.45;;;23.10;99.90;;;;;;7366163;19;20023;-61
2022/10/26 13:01:15;;;;;;;5.38;2.40;;;22.60;99.90;;;;;;7362498;19;20031;-62
2022/10/26 13:03:55;;;;;;;5.50;2.40;;;22.40;99.90;;;;;;7368209;19;20503;-62
2022/10/26 13:06:49;;;;;;;6.28;2.80;;;22.40;99.90;;;;;;7362859;19;20786;-61
2022/10/26 13:09:20;;;;;;;3.53;2.50;;;22.70;99.90;;;;;;7363671;19;20014;-63